sensor_id;sensor_type;location;lat;lon;timestamp;pressure;altitude;pressure_sealevel;temperature;humidity
61674;BME280;47573;43.832;5.974;2023-11-22T00:01:48;94509.84;;;24.85;59.59
61674;BME280;47573;43.832;5.974;2023-11-22T00:08:29;94516.41;;;24.79;59.09
61674;BME280;47573;43.832;5.974;2023-11-22T00:15:11;94526.75;;;24.72;59.12
61674;BME280;47573;43.832;5.974;2023-11-22T00:21:52;94537.13;;;24.70;58.88
61674;BME280;47573;43.832;5.974;2023-11-22T00:28:33;94528.94;;;24.70;58.46
61674;BME280;47573;43.832;5.974;2023-11-22T00:35:15;94540.97;;;24.64;58.54
61674;BME280;47573;43.832;5.974;2023-11-22T00:41:55;94553.50;;;24.55;57.06
61674;BME280;47573;43.832;5.974;2023-11-22T00:48:36;94561.97;;;24.53;57.47
61674;BME280;47573;43.832;5.974;2023-11-22T00:55:19;94567.13;;;24.50;58.50
61674;BME280;47573;43.832;5.974;2023-11-22T01:02:00;94548.03;;;24.45;58.57
61674;BME280;47573;43.832;5.974;2023-11-22T01:08:43;94543.66;;;24.44;58.79
61674;BME280;47573;43.832;5.974;2023-11-22T01:15:25;94549.09;;;24.39;58.80
61674;BME280;47573;43.832;5.974;2023-11-22T01:39:05;94549.06;;;24.29;55.90
61674;BME280;47573;43.832;5.974;2023-11-22T01:45:47;94552.34;;;24.26;56.17
61674;BME280;47573;43.832;5.974;2023-11-22T01:52:27;94542.50;;;24.25;56.44
61674;BME280;47573;43.832;5.974;2023-11-22T01:59:09;94536.78;;;24.21;56.45
61674;BME280;47573;43.832;5.974;2023-11-22T02:05:51;94534.84;;;24.17;56.78
61674;BME280;47573;43.832;5.974;2023-11-22T02:12:32;94514.13;;;24.11;56.96
61674;BME280;47573;43.832;5.974;2023-11-22T02:19:16;94520.13;;;24.08;57.00
61674;BME280;47573;43.832;5.974;2023-11-22T02:25:58;94518.16;;;24.03;57.34
61674;BME280;47573;43.832;5.974;2023-11-22T02:32:39;94496.06;;;24.00;57.29
61674;BME280;47573;43.832;5.974;2023-11-22T02:39:20;94517.59;;;23.96;57.23
61674;BME280;47573;43.832;5.974;2023-11-22T02:46:02;94513.22;;;23.90;57.46
61674;BME280;47573;43.832;5.974;2023-11-22T02:52:44;94526.03;;;23.89;57.05
61674;BME280;47573;43.832;5.974;2023-11-22T02:59:24;94524.66;;;23.87;56.91
61674;BME280;47573;43.832;5.974;2023-11-22T03:06:07;94522.19;;;23.80;57.17
61674;BME280;47573;43.832;5.974;2023-11-22T03:12:47;94521.09;;;23.81;57.13
61674;BME280;47573;43.832;5.974;2023-11-22T03:19:28;94525.97;;;23.74;57.33
61674;BME280;47573;43.832;5.974;2023-11-22T03:26:10;94527.34;;;23.72;57.24
61674;BME280;47573;43.832;5.974;2023-11-22T03:32:51;94530.34;;;23.70;57.00
61674;BME280;47573;43.832;5.974;2023-11-22T03:39:31;94532.19;;;23.65;56.99
61674;BME280;47573;43.832;5.974;2023-11-22T03:46:16;94530.81;;;23.62;57.39
61674;BME280;47573;43.832;5.974;2023-11-22T03:52:57;94532.44;;;23.58;57.24
61674;BME280;47573;43.832;5.974;2023-11-22T03:59:40;94532.97;;;23.55;57.09
61674;BME280;47573;43.832;5.974;2023-11-22T04:06:22;94530.22;;;23.50;57.07
61674;BME280;47573;43.832;5.974;2023-11-22T04:13:06;94523.66;;;23.46;57.14
61674;BME280;47573;43.832;5.974;2023-11-22T04:19:46;94535.09;;;23.43;57.27
61674;BME280;47573;43.832;5.974;2023-11-22T04:26:28;94531.81;;;23.41;56.98
61674;BME280;47573;43.832;5.974;2023-11-22T04:33:09;94547.06;;;23.37;56.96
61674;BME280;47573;43.832;5.974;2023-11-22T04:39:50;94538.88;;;23.37;57.22
61674;BME280;47573;43.832;5.974;2023-11-22T04:46:34;94533.41;;;23.32;57.31
61674;BME280;47573;43.832;5.974;2023-11-22T04:53:15;94550.78;;;23.31;57.63
61674;BME280;47573;43.832;5.974;2023-11-22T04:59:55;94557.84;;;23.27;57.77
61674;BME280;47573;43.832;5.974;2023-11-22T05:06:37;94556.72;;;23.23;57.76
61674;BME280;47573;43.832;5.974;2023-11-22T05:13:18;94563.53;;;23.21;57.56
61674;BME280;47573;43.832;5.974;2023-11-22T05:19:59;94578.72;;;23.16;57.79
61674;BME280;47573;43.832;5.974;2023-11-22T05:26:41;94578.72;;;23.16;57.45
61674;BME280;47573;43.832;5.974;2023-11-22T05:33:21;94587.19;;;23.15;57.64
61674;BME280;47573;43.832;5.974;2023-11-22T05:40:03;94598.06;;;23.15;57.47
61674;BME280;47573;43.832;5.974;2023-11-22T05:46:46;94587.16;;;23.10;57.74
61674;BME280;47573;43.832;5.974;2023-11-22T05:53:26;94597.50;;;23.08;57.78
61674;BME280;47573;43.832;5.974;2023-11-22T06:00:08;94600.44;;;23.06;57.66
61674;BME280;47573;43.832;5.974;2023-11-22T06:06:50;94587.63;;;23.02;57.60
61674;BME280;47573;43.832;5.974;2023-11-22T06:13:31;94595.53;;;23.03;57.37
61674;BME280;47573;43.832;5.974;2023-11-22T06:20:12;94586.81;;;23.01;57.34
61674;BME280;47573;43.832;5.974;2023-11-22T06:26:55;94612.13;;;23.02;57.46
61674;BME280;47573;43.832;5.974;2023-11-22T06:33:35;94625.16;;;23.00;57.48
61674;BME280;47573;43.832;5.974;2023-11-22T06:40:16;94621.31;;;22.96;57.69
61674;BME280;47573;43.832;5.974;2023-11-22T06:47:02;94651.25;;;22.91;57.64
61674;BME280;47573;43.832;5.974;2023-11-22T06:53:43;94663.53;;;22.93;57.65
61674;BME280;47573;43.832;5.974;2023-11-22T07:00:23;94657.34;;;23.03;57.26
61674;BME280;47573;43.832;5.974;2023-11-22T07:07:05;94675.06;;;23.05;56.91
61674;BME280;47573;43.832;5.974;2023-11-22T07:13:46;94680.88;;;23.19;56.70
61674;BME280;47573;43.832;5.974;2023-11-22T07:20:28;94690.50;;;23.27;56.73
61674;BME280;47573;43.832;5.974;2023-11-22T07:27:10;94706.00;;;23.26;56.71
61674;BME280;47573;43.832;5.974;2023-11-22T07:33:52;94696.84;;;23.32;56.25
61674;BME280;47573;43.832;5.974;2023-11-22T07:40:33;94697.19;;;23.46;54.94
61674;BME280;47573;43.832;5.974;2023-11-22T07:47:16;94692.06;;;23.49;55.10
61674;BME280;47573;43.832;5.974;2023-11-22T08:10:10;94687.34;;;23.76;55.26
61674;BME280;47573;43.832;5.974;2023-11-22T08:16:58;94686.88;;;23.89;55.94
61674;BME280;47573;43.832;5.974;2023-11-22T08:23:39;94698.59;;;23.90;55.70
61674;BME280;47573;43.832;5.974;2023-11-22T08:30:21;94705.91;;;23.79;54.67
61674;BME280;47573;43.832;5.974;2023-11-22T08:37:02;94713.13;;;24.01;55.20
61674;BME280;47573;43.832;5.974;2023-11-22T08:43:43;94714.81;;;24.07;54.81
61674;BME280;47573;43.832;5.974;2023-11-22T08:50:25;94723.59;;;24.14;54.32
61674;BME280;47573;43.832;5.974;2023-11-22T08:57:06;94742.16;;;24.17;54.13
61674;BME280;47573;43.832;5.974;2023-11-22T09:03:46;94741.34;;;24.16;54.04
61674;BME280;47573;43.832;5.974;2023-11-22T09:10:29;94751.72;;;24.19;53.67
61674;BME280;47573;43.832;5.974;2023-11-22T09:17:10;94762.63;;;24.19;53.76
61674;BME280;47573;43.832;5.974;2023-11-22T09:23:51;94760.75;;;24.20;53.54
61674;BME280;47573;43.832;5.974;2023-11-22T09:30:33;94771.66;;;24.25;53.32
61674;BME280;47573;43.832;5.974;2023-11-22T09:37:23;94765.66;;;24.23;53.67
61674;BME280;47573;43.832;5.974;2023-11-22T09:44:05;94764.63;;;24.34;52.98
61674;BME280;47573;43.832;5.974;2023-11-22T09:50:54;94764.69;;;24.44;52.86
61674;BME280;47573;43.832;5.974;2023-11-22T09:57:38;94778.03;;;24.45;52.50
61674;BME280;47573;43.832;5.974;2023-11-22T10:04:19;94809.22;;;24.54;52.57
61674;BME280;47573;43.832;5.974;2023-11-22T10:11:03;94784.38;;;24.56;52.45
61674;BME280;47573;43.832;5.974;2023-11-22T10:17:49;94807.31;;;24.60;52.43
61674;BME280;47573;43.832;5.974;2023-11-22T10:24:34;94798.59;;;24.58;52.41
61674;BME280;47573;43.832;5.974;2023-11-22T10:31:16;94800.53;;;24.62;52.29
61674;BME280;47573;43.832;5.974;2023-11-22T10:37:59;94805.47;;;24.65;52.36
61674;BME280;47573;43.832;5.974;2023-11-22T10:44:40;94795.91;;;24.63;52.81
61674;BME280;47573;43.832;5.974;2023-11-22T10:51:26;94826.47;;;24.65;52.88
61674;BME280;47573;43.832;5.974;2023-11-22T10:58:11;94827.03;;;24.67;52.74
61674;BME280;47573;43.832;5.974;2023-11-22T11:04:59;94823.22;;;24.68;52.71
61674;BME280;47573;43.832;5.974;2023-11-22T11:11:45;94824.84;;;24.64;52.55
61674;BME280;47573;43.832;5.974;2023-11-22T11:18:27;94842.84;;;24.65;53.07
61674;BME280;47573;43.832;5.974;2023-11-22T11:25:15;94842.34;;;24.68;52.99
61674;BME280;47573;43.832;5.974;2023-11-22T11:31:58;94843.69;;;24.70;52.71
61674;BME280;47573;43.832;5.974;2023-11-22T11:38:38;94837.16;;;24.71;53.01
61674;BME280;47573;43.832;5.974;2023-11-22T11:45:19;94826.50;;;24.70;53.10
61674;BME280;47573;43.832;5.974;2023-11-22T11:52:02;94829.78;;;24.72;53.14
61674;BME280;47573;43.832;5.974;2023-11-22T11:58:44;94836.31;;;24.71;53.06
61674;BME280;47573;43.832;5.974;2023-11-22T12:05:24;94829.78;;;24.72;53.27
61674;BME280;47573;43.832;5.974;2023-11-22T12:12:07;94836.94;;;24.78;53.20
61674;BME280;47573;43.832;5.974;2023-11-22T12:18:49;94836.94;;;24.78;53.34
61674;BME280;47573;43.832;5.974;2023-11-22T12:25:30;94844.25;;;24.72;53.41
61674;BME280;47573;43.832;5.974;2023-11-22T12:32:12;94835.84;;;24.74;53.23
61674;BME280;47573;43.832;5.974;2023-11-22T12:38:55;94864.25;;;24.78;53.23
61674;BME280;47573;43.832;5.974;2023-11-22T12:45:36;94858.25;;;24.76;53.04
61674;BME280;47573;43.832;5.974;2023-11-22T12:52:26;94862.56;;;24.72;53.57
61674;BME280;47573;43.832;5.974;2023-11-22T12:59:07;94864.78;;;24.75;53.47
61674;BME280;47573;43.832;5.974;2023-11-22T13:05:47;94864.78;;;24.75;53.64
61674;BME280;47573;43.832;5.974;2023-11-22T13:12:30;94865.88;;;24.79;53.69
61674;BME280;47573;43.832;5.974;2023-11-22T13:19:11;94868.59;;;24.74;54.07
61674;BME280;47573;43.832;5.974;2023-11-22T13:25:52;94880.56;;;24.68;53.91
61674;BME280;47573;43.832;5.974;2023-11-22T13:32:34;94878.06;;;24.66;54.04
61674;BME280;47573;43.832;5.974;2023-11-22T13:39:15;94876.13;;;24.62;54.04
61674;BME280;47573;43.832;5.974;2023-11-22T13:45:57;94886.53;;;24.65;54.21
61674;BME280;47573;43.832;5.974;2023-11-22T13:52:38;94886.03;;;24.68;54.28
61674;BME280;47573;43.832;5.974;2023-11-22T13:59:19;94884.34;;;24.67;54.42
61674;BME280;47573;43.832;5.974;2023-11-22T14:06:00;94889.81;;;24.67;54.67
61674;BME280;47573;43.832;5.974;2023-11-22T14:12:42;94892.00;;;24.65;54.41
61674;BME280;47573;43.832;5.974;2023-11-22T14:19:23;94890.38;;;24.64;54.43
61674;BME280;47573;43.832;5.974;2023-11-22T14:26:04;94907.53;;;24.64;54.68
61674;BME280;47573;43.832;5.974;2023-11-22T14:32:47;94914.94;;;24.64;54.68
61674;BME280;47573;43.832;5.974;2023-11-22T14:39:28;94943.31;;;24.63;54.79
61674;BME280;47573;43.832;5.974;2023-11-22T14:46:09;94950.94;;;24.61;55.04
61674;BME280;47573;43.832;5.974;2023-11-22T14:52:51;94971.09;;;24.60;54.88
61674;BME280;47573;43.832;5.974;2023-11-22T14:59:32;94976.84;;;24.58;54.70
61674;BME280;47573;43.832;5.974;2023-11-22T15:06:12;94977.63;;;24.54;55.26
61674;BME280;47573;43.832;5.974;2023-11-22T15:12:55;94981.44;;;24.53;55.03
61674;BME280;47573;43.832;5.974;2023-11-22T15:19:37;94992.38;;;24.53;55.38
61674;BME280;47573;43.832;5.974;2023-11-22T15:26:21;94997.25;;;24.51;55.32
61674;BME280;47573;43.832;5.974;2023-11-22T15:33:03;95012.25;;;24.48;55.10
61674;BME280;47573;43.832;5.974;2023-11-22T15:39:45;95019.03;;;24.46;55.23
61674;BME280;47573;43.832;5.974;2023-11-22T15:46:25;95022.88;;;24.45;55.94
61674;BME280;47573;43.832;5.974;2023-11-22T15:53:09;95059.50;;;24.54;56.63
61674;BME280;47573;43.832;5.974;2023-11-22T15:59:53;95071.66;;;24.68;56.89
61674;BME280;47573;43.832;5.974;2023-11-22T16:06:34;95072.47;;;24.68;57.36
61674;BME280;47573;43.832;5.974;2023-11-22T16:13:17;95079.97;;;24.78;57.87
61674;BME280;47573;43.832;5.974;2023-11-22T16:19:57;95082.16;;;24.81;57.95
61674;BME280;47573;43.832;5.974;2023-11-22T16:26:41;95094.78;;;24.87;58.61
61674;BME280;47573;43.832;5.974;2023-11-22T16:33:23;95107.38;;;24.93;58.39
61674;BME280;47573;43.832;5.974;2023-11-22T16:40:04;95112.63;;;24.95;58.27
61674;BME280;47573;43.832;5.974;2023-11-22T16:46:49;95127.06;;;24.95;58.89
61674;BME280;47573;43.832;5.974;2023-11-22T16:53:31;95141.88;;;24.99;58.96
61674;BME280;47573;43.832;5.974;2023-11-22T17:00:12;95157.09;;;24.90;56.86
61674;BME280;47573;43.832;5.974;2023-11-22T17:06:58;95166.91;;;24.91;59.19
61674;BME280;47573;43.832;5.974;2023-11-22T17:13:43;95177.28;;;24.89;59.79
61674;BME280;47573;43.832;5.974;2023-11-22T17:20:23;95183.06;;;24.93;60.60
61674;BME280;47573;43.832;5.974;2023-11-22T17:27:04;95182.22;;;24.92;61.01
61674;BME280;47573;43.832;5.974;2023-11-22T17:33:46;95194.84;;;24.98;60.62
61674;BME280;47573;43.832;5.974;2023-11-22T17:40:27;95199.25;;;24.99;61.35
61674;BME280;47573;43.832;5.974;2023-11-22T17:47:09;95203.69;;;25.05;61.57
61674;BME280;47573;43.832;5.974;2023-11-22T17:53:51;95198.25;;;25.10;61.45
61674;BME280;47573;43.832;5.974;2023-11-22T18:00:31;95206.97;;;25.07;61.89
61674;BME280;47573;43.832;5.974;2023-11-22T18:07:13;95213.03;;;25.14;61.84
61674;BME280;47573;43.832;5.974;2023-11-22T18:13:56;95218.50;;;25.14;62.27
61674;BME280;47573;43.832;5.974;2023-11-22T18:20:41;95233.06;;;25.20;62.11
61674;BME280;47573;43.832;5.974;2023-11-22T18:27:23;95232.25;;;25.24;62.25
61674;BME280;47573;43.832;5.974;2023-11-22T18:34:05;95257.41;;;25.26;62.66
61674;BME280;47573;43.832;5.974;2023-11-22T18:40:46;95263.47;;;25.28;62.65
61674;BME280;47573;43.832;5.974;2023-11-22T18:47:27;95262.94;;;25.31;62.62
61674;BME280;47573;43.832;5.974;2023-11-22T18:54:10;95256.97;;;25.34;62.73
61674;BME280;47573;43.832;5.974;2023-11-22T19:00:51;95255.88;;;25.35;63.06
61674;BME280;47573;43.832;5.974;2023-11-22T19:07:31;95255.31;;;25.33;63.45
61674;BME280;47573;43.832;5.974;2023-11-22T19:14:13;95255.88;;;25.35;64.13
61674;BME280;47573;43.832;5.974;2023-11-22T19:20:55;95254.84;;;25.41;64.02
61674;BME280;47573;43.832;5.974;2023-11-22T19:27:41;95272.66;;;25.44;64.19
61674;BME280;47573;43.832;5.974;2023-11-22T19:34:23;95270.19;;;25.42;64.57
61674;BME280;47573;43.832;5.974;2023-11-22T19:41:04;95284.41;;;25.44;64.62
61674;BME280;47573;43.832;5.974;2023-11-22T19:47:45;95291.53;;;25.45;64.88
61674;BME280;47573;43.832;5.974;2023-11-22T19:54:28;95274.56;;;25.43;65.03
61674;BME280;47573;43.832;5.974;2023-11-22T20:01:08;95270.53;;;25.51;64.67
61674;BME280;47573;43.832;5.974;2023-11-22T20:07:50;95280.91;;;25.49;65.63
61674;BME280;47573;43.832;5.974;2023-11-22T20:14:32;95303.09;;;25.52;66.01
61674;BME280;47573;43.832;5.974;2023-11-22T20:21:13;95310.81;;;25.61;66.71
61674;BME280;47573;43.832;5.974;2023-11-22T20:27:53;95308.06;;;25.61;67.23
61674;BME280;47573;43.832;5.974;2023-11-22T20:34:35;95314.03;;;25.52;67.62
61674;BME280;47573;43.832;5.974;2023-11-22T20:41:18;95338.16;;;25.61;67.58
61674;BME280;47573;43.832;5.974;2023-11-22T20:48:00;95330.50;;;25.63;67.21
61674;BME280;47573;43.832;5.974;2023-11-22T20:54:42;95322.25;;;25.58;66.36
61674;BME280;47573;43.832;5.974;2023-11-22T21:01:22;95320.91;;;25.33;65.84
61674;BME280;47573;43.832;5.974;2023-11-22T21:08:03;95324.59;;;25.22;65.59
61674;BME280;47573;43.832;5.974;2023-11-22T21:14:45;95332.44;;;25.14;65.33
61674;BME280;47573;43.832;5.974;2023-11-22T21:21:26;95333.97;;;25.05;65.96
61674;BME280;47573;43.832;5.974;2023-11-22T21:28:07;95342.94;;;25.00;66.15
61674;BME280;47573;43.832;5.974;2023-11-22T21:34:49;95333.03;;;24.94;66.12
61674;BME280;47573;43.832;5.974;2023-11-22T21:41:30;95344.97;;;24.88;65.83
61674;BME280;47573;43.832;5.974;2023-11-22T21:48:11;95346.56;;;24.84;65.68
61674;BME280;47573;43.832;5.974;2023-11-22T21:54:53;95357.41;;;24.79;65.40
61674;BME280;47573;43.832;5.974;2023-11-22T22:01:34;95369.91;;;24.75;65.11
61674;BME280;47573;43.832;5.974;2023-11-22T22:08:15;95380.75;;;24.70;65.53
61674;BME280;47573;43.832;5.974;2023-11-22T22:14:58;95378.53;;;24.67;64.94
61674;BME280;47573;43.832;5.974;2023-11-22T22:21:38;95373.81;;;24.62;64.94
61674;BME280;47573;43.832;5.974;2023-11-22T22:28:19;95373.50;;;24.59;65.14
61674;BME280;47573;43.832;5.974;2023-11-22T22:35:01;95365.22;;;24.54;65.21
61674;BME280;47573;43.832;5.974;2023-11-22T22:41:42;95369.78;;;24.48;65.10
61674;BME280;47573;43.832;5.974;2023-11-22T22:48:22;95373.84;;;24.46;65.11
61674;BME280;47573;43.832;5.974;2023-11-22T22:55:05;95390.75;;;24.43;64.56
61674;BME280;47573;43.832;5.974;2023-11-22T23:01:47;95388.50;;;24.40;64.55
61674;BME280;47573;43.832;5.974;2023-11-22T23:08:28;95381.31;;;24.34;64.56
61674;BME280;47573;43.832;5.974;2023-11-22T23:15:10;95377.44;;;24.13;59.57
61674;BME280;47573;43.832;5.974;2023-11-22T23:21:51;95375.03;;;24.17;61.10
61674;BME280;47573;43.832;5.974;2023-11-22T23:28:34;95381.81;;;24.14;62.06
61674;BME280;47573;43.832;5.974;2023-11-22T23:35:17;95374.72;;;24.13;62.20
61674;BME280;47573;43.832;5.974;2023-11-22T23:41:58;95363.50;;;24.10;62.47
61674;BME280;47573;43.832;5.974;2023-11-22T23:48:40;95372.41;;;24.05;62.60
61674;BME280;47573;43.832;5.974;2023-11-22T23:55:24;95376.94;;;24.00;62.61
